Flight Track Log - Related Links

Times and Time Zones

All times are in EDT time to prevent confusion due to time zone crossing. See the N1095X flight status page for this flight to view local times or setup timezone preferences in your user account.

Time Position Orientation Groundspeed Altitude Reporting Facility
EDT Latitude Longitude Course Direction KTS MPH feet Rate Location/Type
Thu 10:02:15 AM 42.7089 -84.7128 229° Southwest 117 135 3,300  Level Chicago Center
Thu 10:03:17 AM 42.6881 -84.7483 231° Southwest 118 136 3,900 528 Climbing Chicago Center
Thu 10:04:20 AM 42.6686 -84.7847 234° Southwest 118 136 4,400 288 Climbing Chicago Center
Thu 10:05:00 AM 42.6186 -84.8732 233° Southwest  Level Estimated
Thu 10:05:22 AM 42.6444 -84.8325 235° Southwest 127 146 4,500  Level Chicago Center
Thu 10:06:00 AM 42.5957 -84.9141 233° Southwest  Level Estimated
Thu 10:06:24 AM 42.6217 -84.8747 234° Southwest 137 158 4,500  Level Chicago Center
Thu 10:07:26 AM 42.5989 -84.9192 235° Southwest 141 162 4,500  Level Chicago Center
Thu 10:08:28 AM 42.5756 -84.9625 234° Southwest 142 163 4,500  Level Chicago Center
Thu 10:09:30 AM 42.5497 -85.0019 228° Southwest 141 162 4,500  Level Chicago Center
Thu 10:10:32 AM 42.5253 -85.0458 233° Southwest 145 167 4,500  Level Chicago Center
Thu 10:11:34 AM 42.4953 -85.0964 231° Southwest 145 167 4,500 -48 Level Chicago Center
Thu 10:12:36 AM 42.4708 -85.1389 232° Southwest 144 166 4,400 -48 Descending Chicago Center
Thu 10:13:39 AM 42.4353 -85.1681 211° Southwest 147 169 4,400  Level Chicago Center
Thu 10:14:41 AM 42.4006 -85.1981 213° Southwest 148 170 4,400 48 Level Chicago Center
Thu 10:15:43 AM 42.3669 -85.2286 214° Southwest 146 168 4,500 48 Climbing Chicago Center
Thu 10:16:45 AM 42.3331 -85.2589 213° Southwest 146 168 4,500  Level Chicago Center
Thu 10:17:47 AM 42.2914 -85.2958 213° Southwest 148 170 4,500  Level Chicago Center
Thu 10:18:49 AM 42.2592 -85.3242 213° Southwest 149 171 4,500  Level Chicago Center
Thu 10:19:51 AM 42.2250 -85.3542 213° Southwest 148 170 4,500 -339 Level Chicago Center
Thu 10:20:53 AM 42.2083 -85.4028 245° Southwest 146 168 3,800 -919 Descending Chicago Center
Thu 10:21:55 AM 42.2025 -85.4642 263° West 140 161 2,600 -912 Descending Chicago Center
Thu 10:22:58 AM 42.2011 -85.5108 268° West 134 154 1,900 -624 Descending Chicago Center
Thu 10:24:00 AM 42.2067 -85.5428 283° West 117 135 1,300 -435 Descending Chicago Center
Thu 10:25:02 AM 42.2253 -85.5567 331° Northwest 104 120 1,000 -290 Descending Chicago Center

Login

Don't have an account? Register now (free) for customized features, flight alerts, and more!